Aviation Digital Data Service (ADDS)

Output produced by METARs form (1312 UTC 26 March 2019)
found at http://www.aviationweather.gov/metar/data/
 
GABS 261230Z 01010KT 340V050 CAVOK 36/13 Q1012 NOSIG
TAF GABS 260520Z 2606/2712 28008KT CAVOK 
     PROB40 
     TEMPO 2606/2610 TS FEW035 FEW040CB
       
TAF GAGO 261100Z 2612/2712 12020G30KT 0800 BLDU NSC 
     BECMG 2618/2620 2000 
     TEMPO 2706/2712 1200 DU
       
GAMB 261200Z 04020KT 2000 BLDU NSC 37/03 Q1010
GANR 261200Z 04006KT CAVOK 35/12 Q1013